sensor_id;sensor_type;location;lat;lon;timestamp;P1;durP1;ratioP1;P2;durP2;ratioP2
72720;SDS011;60835;50.974;10.322;2023-03-01T00:01:08;33.17;;;17.27;;
72720;SDS011;60835;50.974;10.322;2023-03-01T00:03:37;30.17;;;16.08;;
72720;SDS011;60835;50.974;10.322;2023-03-01T00:06:04;35.85;;;19.20;;
72720;SDS011;60835;50.974;10.322;2023-03-01T00:08:32;31.30;;;16.95;;
72720;SDS011;60835;50.974;10.322;2023-03-01T00:11:11;31.67;;;16.63;;
72720;SDS011;60835;50.974;10.322;2023-03-01T00:13:38;32.40;;;17.70;;
72720;SDS011;60835;50.974;10.322;2023-03-01T00:16:09;33.47;;;17.35;;
72720;SDS011;60835;50.974;10.322;2023-03-01T00:18:43;34.70;;;18.23;;
72720;SDS011;60835;50.974;10.322;2023-03-01T00:21:10;33.47;;;17.73;;
72720;SDS011;60835;50.974;10.322;2023-03-01T00:23:37;36.92;;;18.85;;
72720;SDS011;60835;50.974;10.322;2023-03-01T00:26:11;39.40;;;18.88;;
72720;SDS011;60835;50.974;10.322;2023-03-01T00:28:39;36.25;;;18.55;;
72720;SDS011;60835;50.974;10.322;2023-03-01T00:31:09;41.92;;;19.23;;
72720;SDS011;60835;50.974;10.322;2023-03-01T00:33:38;32.45;;;16.88;;
72720;SDS011;60835;50.974;10.322;2023-03-01T00:36:05;37.38;;;18.00;;
72720;SDS011;60835;50.974;10.322;2023-03-01T00:38:37;33.83;;;18.70;;
72720;SDS011;60835;50.974;10.322;2023-03-01T00:41:05;38.97;;;18.20;;
72720;SDS011;60835;50.974;10.322;2023-03-01T00:43:34;36.35;;;17.67;;
72720;SDS011;60835;50.974;10.322;2023-03-01T00:46:03;33.97;;;17.77;;
72720;SDS011;60835;50.974;10.322;2023-03-01T00:48:32;36.35;;;18.35;;
72720;SDS011;60835;50.974;10.322;2023-03-01T00:53:32;40.03;;;18.93;;
72720;SDS011;60835;50.974;10.322;2023-03-01T00:56:02;41.15;;;20.10;;
72720;SDS011;60835;50.974;10.322;2023-03-01T00:58:30;34.90;;;17.88;;
72720;SDS011;60835;50.974;10.322;2023-03-01T01:00:57;39.03;;;18.98;;
72720;SDS011;60835;50.974;10.322;2023-03-01T01:03:23;38.60;;;18.83;;
72720;SDS011;60835;50.974;10.322;2023-03-01T01:05:51;43.35;;;19.10;;
72720;SDS011;60835;50.974;10.322;2023-03-01T01:08:19;34.90;;;18.05;;
72720;SDS011;60835;50.974;10.322;2023-03-01T01:10:47;36.47;;;17.02;;
72720;SDS011;60835;50.974;10.322;2023-03-01T01:13:13;35.85;;;18.23;;
72720;SDS011;60835;50.974;10.322;2023-03-01T01:15:40;38.97;;;18.48;;
72720;SDS011;60835;50.974;10.322;2023-03-01T01:18:07;41.92;;;18.92;;
72720;SDS011;60835;50.974;10.322;2023-03-01T01:20:34;35.58;;;19.23;;
72720;SDS011;60835;50.974;10.322;2023-03-01T01:23:04;35.80;;;18.90;;
72720;SDS011;60835;50.974;10.322;2023-03-01T01:25:34;42.45;;;19.60;;
72720;SDS011;60835;50.974;10.322;2023-03-01T01:28:02;33.47;;;18.02;;
72720;SDS011;60835;50.974;10.322;2023-03-01T01:30:28;38.65;;;19.50;;
72720;SDS011;60835;50.974;10.322;2023-03-01T01:32:55;38.05;;;19.15;;
72720;SDS011;60835;50.974;10.322;2023-03-01T01:35:21;39.35;;;19.17;;
72720;SDS011;60835;50.974;10.322;2023-03-01T01:37:48;34.40;;;18.02;;
72720;SDS011;60835;50.974;10.322;2023-03-01T01:40:14;36.10;;;18.48;;
72720;SDS011;60835;50.974;10.322;2023-03-01T01:42:40;36.65;;;18.52;;
72720;SDS011;60835;50.974;10.322;2023-03-01T01:48:06;40.60;;;19.27;;
72720;SDS011;60835;50.974;10.322;2023-03-01T01:50:39;40.63;;;19.20;;
72720;SDS011;60835;50.974;10.322;2023-03-01T01:53:12;39.35;;;17.83;;
72720;SDS011;60835;50.974;10.322;2023-03-01T01:55:47;35.95;;;17.73;;
72720;SDS011;60835;50.974;10.322;2023-03-01T01:58:18;37.55;;;18.40;;
72720;SDS011;60835;50.974;10.322;2023-03-01T02:00:47;35.67;;;17.75;;
72720;SDS011;60835;50.974;10.322;2023-03-01T02:03:14;37.78;;;19.52;;
72720;SDS011;60835;50.974;10.322;2023-03-01T02:05:47;38.88;;;19.13;;
72720;SDS011;60835;50.974;10.322;2023-03-01T02:08:21;42.10;;;18.02;;
72720;SDS011;60835;50.974;10.322;2023-03-01T02:10:51;38.17;;;18.23;;
72720;SDS011;60835;50.974;10.322;2023-03-01T02:13:19;41.00;;;19.73;;
72720;SDS011;60835;50.974;10.322;2023-03-01T02:15:45;37.72;;;18.95;;
72720;SDS011;60835;50.974;10.322;2023-03-01T02:18:14;38.33;;;19.50;;
72720;SDS011;60835;50.974;10.322;2023-03-01T02:20:49;36.03;;;19.20;;
72720;SDS011;60835;50.974;10.322;2023-03-01T02:23:22;44.83;;;19.30;;
72720;SDS011;60835;50.974;10.322;2023-03-01T02:25:55;45.83;;;19.98;;
72720;SDS011;60835;50.974;10.322;2023-03-01T02:28:31;38.45;;;19.25;;
72720;SDS011;60835;50.974;10.322;2023-03-01T02:31:03;42.55;;;18.80;;
72720;SDS011;60835;50.974;10.322;2023-03-01T02:33:50;41.55;;;18.88;;
72720;SDS011;60835;50.974;10.322;2023-03-01T02:36:20;39.08;;;18.67;;
72720;SDS011;60835;50.974;10.322;2023-03-01T02:38:50;39.20;;;19.13;;
72720;SDS011;60835;50.974;10.322;2023-03-01T02:41:19;38.30;;;18.60;;
72720;SDS011;60835;50.974;10.322;2023-03-01T02:43:48;37.78;;;17.80;;
72720;SDS011;60835;50.974;10.322;2023-03-01T02:46:21;32.83;;;17.92;;
72720;SDS011;60835;50.974;10.322;2023-03-01T02:48:52;35.85;;;17.80;;
72720;SDS011;60835;50.974;10.322;2023-03-01T02:51:27;33.25;;;17.85;;
72720;SDS011;60835;50.974;10.322;2023-03-01T02:56:57;34.05;;;17.80;;
72720;SDS011;60835;50.974;10.322;2023-03-01T02:59:25;40.58;;;18.85;;
72720;SDS011;60835;50.974;10.322;2023-03-01T03:01:54;35.30;;;18.35;;
72720;SDS011;60835;50.974;10.322;2023-03-01T03:04:20;38.58;;;17.48;;
72720;SDS011;60835;50.974;10.322;2023-03-01T03:06:48;35.85;;;18.25;;
72720;SDS011;60835;50.974;10.322;2023-03-01T03:09:16;41.25;;;18.23;;
72720;SDS011;60835;50.974;10.322;2023-03-01T03:11:44;40.03;;;19.15;;
72720;SDS011;60835;50.974;10.322;2023-03-01T03:14:11;41.45;;;20.27;;
72720;SDS011;60835;50.974;10.322;2023-03-01T03:16:44;44.85;;;19.60;;
72720;SDS011;60835;50.974;10.322;2023-03-01T03:19:18;46.17;;;19.98;;
72720;SDS011;60835;50.974;10.322;2023-03-01T03:21:45;42.30;;;19.77;;
72720;SDS011;60835;50.974;10.322;2023-03-01T03:24:12;38.53;;;19.48;;
72720;SDS011;60835;50.974;10.322;2023-03-01T03:26:38;38.65;;;20.75;;
72720;SDS011;60835;50.974;10.322;2023-03-01T03:29:05;43.58;;;19.92;;
72720;SDS011;60835;50.974;10.322;2023-03-01T03:31:31;38.97;;;18.77;;
72720;SDS011;60835;50.974;10.322;2023-03-01T03:33:58;46.35;;;21.27;;
72720;SDS011;60835;50.974;10.322;2023-03-01T03:36:25;37.40;;;19.02;;
72720;SDS011;60835;50.974;10.322;2023-03-01T03:38:52;39.70;;;19.98;;
72720;SDS011;60835;50.974;10.322;2023-03-01T03:41:18;38.00;;;19.05;;
72720;SDS011;60835;50.974;10.322;2023-03-01T03:43:45;42.00;;;19.25;;
72720;SDS011;60835;50.974;10.322;2023-03-01T03:46:11;39.90;;;19.38;;
72720;SDS011;60835;50.974;10.322;2023-03-01T03:48:40;39.20;;;19.85;;
72720;SDS011;60835;50.974;10.322;2023-03-01T03:51:12;40.03;;;19.73;;
72720;SDS011;60835;50.974;10.322;2023-03-01T03:53:39;39.90;;;19.08;;
72720;SDS011;60835;50.974;10.322;2023-03-01T03:56:06;42.35;;;20.92;;
72720;SDS011;60835;50.974;10.322;2023-03-01T03:58:33;38.15;;;19.05;;
72720;SDS011;60835;50.974;10.322;2023-03-01T04:01:00;40.92;;;19.52;;
72720;SDS011;60835;50.974;10.322;2023-03-01T04:03:27;39.78;;;19.52;;
72720;SDS011;60835;50.974;10.322;2023-03-01T04:05:56;40.00;;;18.65;;
72720;SDS011;60835;50.974;10.322;2023-03-01T04:08:24;36.90;;;18.40;;
72720;SDS011;60835;50.974;10.322;2023-03-01T04:10:52;42.45;;;17.92;;
72720;SDS011;60835;50.974;10.322;2023-03-01T04:13:23;36.15;;;18.77;;
72720;SDS011;60835;50.974;10.322;2023-03-01T04:15:52;37.22;;;18.10;;
72720;SDS011;60835;50.974;10.322;2023-03-01T04:18:20;39.30;;;18.00;;
72720;SDS011;60835;50.974;10.322;2023-03-01T04:20:49;41.75;;;18.80;;
72720;SDS011;60835;50.974;10.322;2023-03-01T04:23:18;38.10;;;17.20;;
72720;SDS011;60835;50.974;10.322;2023-03-01T04:25:50;39.72;;;18.48;;
72720;SDS011;60835;50.974;10.322;2023-03-01T04:28:21;44.80;;;19.48;;
72720;SDS011;60835;50.974;10.322;2023-03-01T04:30:53;37.15;;;18.92;;
72720;SDS011;60835;50.974;10.322;2023-03-01T04:33:21;40.42;;;19.40;;
72720;SDS011;60835;50.974;10.322;2023-03-01T04:35:49;40.30;;;19.30;;
72720;SDS011;60835;50.974;10.322;2023-03-01T04:38:19;40.80;;;20.73;;
72720;SDS011;60835;50.974;10.322;2023-03-01T04:40:47;43.95;;;19.77;;
72720;SDS011;60835;50.974;10.322;2023-03-01T04:43:14;44.83;;;19.33;;
72720;SDS011;60835;50.974;10.322;2023-03-01T04:45:41;38.92;;;18.52;;
72720;SDS011;60835;50.974;10.322;2023-03-01T04:48:08;39.17;;;18.95;;
72720;SDS011;60835;50.974;10.322;2023-03-01T04:50:37;41.22;;;18.13;;
72720;SDS011;60835;50.974;10.322;2023-03-01T04:53:04;38.33;;;19.10;;
72720;SDS011;60835;50.974;10.322;2023-03-01T04:55:33;43.05;;;18.88;;
72720;SDS011;60835;50.974;10.322;2023-03-01T04:57:59;42.85;;;19.80;;
72720;SDS011;60835;50.974;10.322;2023-03-01T05:00:26;38.80;;;18.40;;
72720;SDS011;60835;50.974;10.322;2023-03-01T05:02:53;35.22;;;17.58;;
72720;SDS011;60835;50.974;10.322;2023-03-01T05:05:24;40.38;;;18.58;;
72720;SDS011;60835;50.974;10.322;2023-03-01T05:08:00;38.97;;;18.02;;
72720;SDS011;60835;50.974;10.322;2023-03-01T05:10:31;37.75;;;17.58;;
72720;SDS011;60835;50.974;10.322;2023-03-01T05:12:59;41.42;;;17.17;;
72720;SDS011;60835;50.974;10.322;2023-03-01T05:15:26;42.47;;;19.65;;
72720;SDS011;60835;50.974;10.322;2023-03-01T05:17:54;39.25;;;19.05;;
72720;SDS011;60835;50.974;10.322;2023-03-01T05:20:28;38.63;;;18.80;;
72720;SDS011;60835;50.974;10.322;2023-03-01T05:22:56;43.75;;;19.23;;
72720;SDS011;60835;50.974;10.322;2023-03-01T05:25:25;41.75;;;19.35;;
72720;SDS011;60835;50.974;10.322;2023-03-01T05:27:52;43.67;;;19.73;;
72720;SDS011;60835;50.974;10.322;2023-03-01T05:30:18;38.05;;;18.60;;
72720;SDS011;60835;50.974;10.322;2023-03-01T05:32:48;38.38;;;19.42;;
72720;SDS011;60835;50.974;10.322;2023-03-01T05:35:16;45.05;;;19.85;;
72720;SDS011;60835;50.974;10.322;2023-03-01T05:37:45;45.70;;;18.75;;
72720;SDS011;60835;50.974;10.322;2023-03-01T05:40:15;44.17;;;19.75;;
72720;SDS011;60835;50.974;10.322;2023-03-01T05:42:47;40.50;;;20.08;;
72720;SDS011;60835;50.974;10.322;2023-03-01T05:45:16;45.92;;;20.17;;
72720;SDS011;60835;50.974;10.322;2023-03-01T05:47:44;38.92;;;19.13;;
72720;SDS011;60835;50.974;10.322;2023-03-01T05:50:13;42.60;;;20.08;;
72720;SDS011;60835;50.974;10.322;2023-03-01T05:52:49;39.85;;;18.80;;
72720;SDS011;60835;50.974;10.322;2023-03-01T05:55:18;42.15;;;19.30;;
72720;SDS011;60835;50.974;10.322;2023-03-01T05:57:46;45.47;;;21.08;;
72720;SDS011;60835;50.974;10.322;2023-03-01T06:00:14;43.17;;;20.52;;
72720;SDS011;60835;50.974;10.322;2023-03-01T06:02:42;42.08;;;20.23;;
72720;SDS011;60835;50.974;10.322;2023-03-01T06:05:09;47.50;;;22.02;;
72720;SDS011;60835;50.974;10.322;2023-03-01T06:07:38;43.00;;;20.52;;
72720;SDS011;60835;50.974;10.322;2023-03-01T06:10:05;46.42;;;20.90;;
72720;SDS011;60835;50.974;10.322;2023-03-01T06:12:37;45.03;;;21.40;;
72720;SDS011;60835;50.974;10.322;2023-03-01T06:15:05;48.20;;;21.27;;
72720;SDS011;60835;50.974;10.322;2023-03-01T06:17:33;39.83;;;20.42;;
72720;SDS011;60835;50.974;10.322;2023-03-01T06:20:07;41.95;;;19.23;;
72720;SDS011;60835;50.974;10.322;2023-03-01T06:22:45;50.60;;;22.70;;
72720;SDS011;60835;50.974;10.322;2023-03-01T06:25:16;40.33;;;20.00;;
72720;SDS011;60835;50.974;10.322;2023-03-01T06:27:45;45.38;;;19.95;;
72720;SDS011;60835;50.974;10.322;2023-03-01T06:30:12;48.83;;;20.95;;
72720;SDS011;60835;50.974;10.322;2023-03-01T06:32:41;47.50;;;20.00;;
72720;SDS011;60835;50.974;10.322;2023-03-01T06:35:11;42.83;;;19.52;;
72720;SDS011;60835;50.974;10.322;2023-03-01T06:37:40;50.85;;;21.75;;
72720;SDS011;60835;50.974;10.322;2023-03-01T06:40:09;42.92;;;19.52;;
72720;SDS011;60835;50.974;10.322;2023-03-01T06:42:38;41.33;;;19.02;;
72720;SDS011;60835;50.974;10.322;2023-03-01T06:45:07;39.60;;;18.92;;
72720;SDS011;60835;50.974;10.322;2023-03-01T06:47:34;42.45;;;20.02;;
72720;SDS011;60835;50.974;10.322;2023-03-01T06:50:01;42.03;;;20.20;;
72720;SDS011;60835;50.974;10.322;2023-03-01T06:52:28;46.55;;;20.17;;
72720;SDS011;60835;50.974;10.322;2023-03-01T06:54:55;50.63;;;22.08;;
72720;SDS011;60835;50.974;10.322;2023-03-01T06:57:22;43.00;;;21.58;;
72720;SDS011;60835;50.974;10.322;2023-03-01T06:59:48;47.00;;;22.33;;
72720;SDS011;60835;50.974;10.322;2023-03-01T07:02:15;48.28;;;21.98;;
72720;SDS011;60835;50.974;10.322;2023-03-01T07:04:42;46.45;;;22.10;;
72720;SDS011;60835;50.974;10.322;2023-03-01T07:07:08;46.20;;;21.90;;
72720;SDS011;60835;50.974;10.322;2023-03-01T07:09:36;44.67;;;21.02;;
72720;SDS011;60835;50.974;10.322;2023-03-01T07:12:04;40.63;;;20.55;;
72720;SDS011;60835;50.974;10.322;2023-03-01T07:14:31;42.08;;;20.58;;
72720;SDS011;60835;50.974;10.322;2023-03-01T07:16:57;44.08;;;21.20;;
72720;SDS011;60835;50.974;10.322;2023-03-01T07:19:24;41.45;;;19.05;;
72720;SDS011;60835;50.974;10.322;2023-03-01T07:21:50;38.17;;;19.63;;
72720;SDS011;60835;50.974;10.322;2023-03-01T07:24:20;40.33;;;19.75;;
72720;SDS011;60835;50.974;10.322;2023-03-01T07:26:49;43.63;;;20.08;;
72720;SDS011;60835;50.974;10.322;2023-03-01T07:29:17;37.80;;;18.80;;
72720;SDS011;60835;50.974;10.322;2023-03-01T07:31:44;40.88;;;19.30;;
72720;SDS011;60835;50.974;10.322;2023-03-01T07:34:11;38.75;;;19.10;;
72720;SDS011;60835;50.974;10.322;2023-03-01T07:36:37;39.83;;;19.88;;
72720;SDS011;60835;50.974;10.322;2023-03-01T07:39:05;40.17;;;20.60;;
72720;SDS011;60835;50.974;10.322;2023-03-01T07:41:32;42.30;;;20.23;;
72720;SDS011;60835;50.974;10.322;2023-03-01T07:43:59;34.67;;;18.65;;
72720;SDS011;60835;50.974;10.322;2023-03-01T07:46:25;38.50;;;18.83;;
72720;SDS011;60835;50.974;10.322;2023-03-01T07:48:51;38.70;;;19.38;;
72720;SDS011;60835;50.974;10.322;2023-03-01T07:51:18;35.58;;;17.95;;
72720;SDS011;60835;50.974;10.322;2023-03-01T07:53:47;33.20;;;17.23;;
72720;SDS011;60835;50.974;10.322;2023-03-01T07:56:14;32.50;;;17.80;;
72720;SDS011;60835;50.974;10.322;2023-03-01T07:58:43;30.05;;;17.88;;
72720;SDS011;60835;50.974;10.322;2023-03-01T08:01:16;34.95;;;18.13;;
72720;SDS011;60835;50.974;10.322;2023-03-01T08:03:44;33.92;;;18.50;;
72720;SDS011;60835;50.974;10.322;2023-03-01T08:06:12;26.88;;;16.45;;
72720;SDS011;60835;50.974;10.322;2023-03-01T08:08:40;30.35;;;17.83;;
72720;SDS011;60835;50.974;10.322;2023-03-01T08:11:07;31.05;;;17.52;;
72720;SDS011;60835;50.974;10.322;2023-03-01T08:13:41;27.55;;;17.08;;
72720;SDS011;60835;50.974;10.322;2023-03-01T08:16:10;26.35;;;16.25;;
72720;SDS011;60835;50.974;10.322;2023-03-01T08:18:39;29.92;;;17.33;;
72720;SDS011;60835;50.974;10.322;2023-03-01T08:21:07;27.17;;;16.33;;
72720;SDS011;60835;50.974;10.322;2023-03-01T08:23:35;25.67;;;15.48;;
72720;SDS011;60835;50.974;10.322;2023-03-01T08:26:13;28.20;;;16.90;;
72720;SDS011;60835;50.974;10.322;2023-03-01T08:28:41;24.98;;;15.07;;
72720;SDS011;60835;50.974;10.322;2023-03-01T08:31:16;23.05;;;15.02;;
72720;SDS011;60835;50.974;10.322;2023-03-01T08:33:45;21.02;;;13.80;;
72720;SDS011;60835;50.974;10.322;2023-03-01T08:36:17;24.50;;;13.82;;
72720;SDS011;60835;50.974;10.322;2023-03-01T08:38:44;24.60;;;13.73;;
72720;SDS011;60835;50.974;10.322;2023-03-01T08:41:12;18.77;;;12.38;;
72720;SDS011;60835;50.974;10.322;2023-03-01T08:43:38;19.67;;;13.05;;
72720;SDS011;60835;50.974;10.322;2023-03-01T08:46:05;21.45;;;12.77;;
72720;SDS011;60835;50.974;10.322;2023-03-01T08:48:32;24.58;;;12.82;;
72720;SDS011;60835;50.974;10.322;2023-03-01T08:51:08;21.35;;;12.63;;
72720;SDS011;60835;50.974;10.322;2023-03-01T08:53:45;19.23;;;11.95;;
72720;SDS011;60835;50.974;10.322;2023-03-01T08:56:12;18.13;;;11.68;;
72720;SDS011;60835;50.974;10.322;2023-03-01T08:58:38;16.15;;;10.93;;
72720;SDS011;60835;50.974;10.322;2023-03-01T09:01:09;19.95;;;11.88;;
72720;SDS011;60835;50.974;10.322;2023-03-01T09:03:36;21.67;;;11.88;;
72720;SDS011;60835;50.974;10.322;2023-03-01T09:06:04;20.00;;;11.70;;
72720;SDS011;60835;50.974;10.322;2023-03-01T09:08:34;18.85;;;12.00;;
72720;SDS011;60835;50.974;10.322;2023-03-01T09:11:02;20.27;;;11.80;;
72720;SDS011;60835;50.974;10.322;2023-03-01T09:13:30;21.45;;;12.82;;
72720;SDS011;60835;50.974;10.322;2023-03-01T09:16:01;19.75;;;11.73;;
72720;SDS011;60835;50.974;10.322;2023-03-01T09:18:32;25.08;;;13.02;;
72720;SDS011;60835;50.974;10.322;2023-03-01T09:21:01;20.55;;;11.48;;
72720;SDS011;60835;50.974;10.322;2023-03-01T09:23:28;23.15;;;11.80;;
72720;SDS011;60835;50.974;10.322;2023-03-01T09:25:55;21.80;;;12.48;;
72720;SDS011;60835;50.974;10.322;2023-03-01T09:28:21;18.95;;;11.65;;
72720;SDS011;60835;50.974;10.322;2023-03-01T09:33:24;20.88;;;11.75;;
72720;SDS011;60835;50.974;10.322;2023-03-01T09:35:55;18.38;;;11.95;;
72720;SDS011;60835;50.974;10.322;2023-03-01T09:38:25;18.65;;;11.70;;
72720;SDS011;60835;50.974;10.322;2023-03-01T09:40:52;19.02;;;12.18;;
72720;SDS011;60835;50.974;10.322;2023-03-01T09:43:26;18.13;;;12.20;;
72720;SDS011;60835;50.974;10.322;2023-03-01T09:46:22;22.83;;;13.18;;
72720;SDS011;60835;50.974;10.322;2023-03-01T09:48:57;18.63;;;11.32;;
72720;SDS011;60835;50.974;10.322;2023-03-01T09:51:33;19.52;;;11.50;;
72720;SDS011;60835;50.974;10.322;2023-03-01T09:54:04;20.73;;;11.38;;
72720;SDS011;60835;50.974;10.322;2023-03-01T09:56:33;19.70;;;11.25;;
72720;SDS011;60835;50.974;10.322;2023-03-01T10:02:02;17.00;;;10.45;;
72720;SDS011;60835;50.974;10.322;2023-03-01T10:04:51;19.92;;;11.48;;
72720;SDS011;60835;50.974;10.322;2023-03-01T10:07:25;19.70;;;11.30;;
72720;SDS011;60835;50.974;10.322;2023-03-01T10:10:04;17.50;;;11.27;;
72720;SDS011;60835;50.974;10.322;2023-03-01T10:12:37;23.55;;;12.60;;
72720;SDS011;60835;50.974;10.322;2023-03-01T10:15:15;16.40;;;11.00;;
72720;SDS011;60835;50.974;10.322;2023-03-01T10:17:50;17.50;;;10.43;;
72720;SDS011;60835;50.974;10.322;2023-03-01T10:20:23;19.85;;;11.57;;
72720;SDS011;60835;50.974;10.322;2023-03-01T10:22:59;18.48;;;11.30;;
72720;SDS011;60835;50.974;10.322;2023-03-01T10:28:33;19.00;;;10.98;;
72720;SDS011;60835;50.974;10.322;2023-03-01T10:31:32;21.38;;;11.10;;
72720;SDS011;60835;50.974;10.322;2023-03-01T10:34:32;21.52;;;12.68;;
72720;SDS011;60835;50.974;10.322;2023-03-01T10:37:08;26.05;;;12.48;;
72720;SDS011;60835;50.974;10.322;2023-03-01T10:39:57;19.90;;;11.32;;
72720;SDS011;60835;50.974;10.322;2023-03-01T10:42:40;19.77;;;11.80;;
72720;SDS011;60835;50.974;10.322;2023-03-01T10:45:15;20.33;;;12.85;;
72720;SDS011;60835;50.974;10.322;2023-03-01T10:47:42;18.60;;;11.40;;
72720;SDS011;60835;50.974;10.322;2023-03-01T10:50:19;26.50;;;12.93;;
72720;SDS011;60835;50.974;10.322;2023-03-01T10:53:04;25.02;;;13.20;;
72720;SDS011;60835;50.974;10.322;2023-03-01T10:55:38;22.75;;;13.02;;
72720;SDS011;60835;50.974;10.322;2023-03-01T10:58:07;24.45;;;13.45;;
72720;SDS011;60835;50.974;10.322;2023-03-01T11:00:48;21.63;;;13.32;;
72720;SDS011;60835;50.974;10.322;2023-03-01T11:03:22;19.70;;;12.15;;
72720;SDS011;60835;50.974;10.322;2023-03-01T11:05:57;22.88;;;12.68;;
72720;SDS011;60835;50.974;10.322;2023-03-01T11:11:24;22.20;;;12.50;;
72720;SDS011;60835;50.974;10.322;2023-03-01T11:16:59;17.45;;;11.80;;
72720;SDS011;60835;50.974;10.322;2023-03-01T11:19:28;21.25;;;11.90;;
72720;SDS011;60835;50.974;10.322;2023-03-01T11:21:59;18.83;;;11.60;;
72720;SDS011;60835;50.974;10.322;2023-03-01T11:27:35;21.13;;;11.82;;
72720;SDS011;60835;50.974;10.322;2023-03-01T11:30:18;21.17;;;12.38;;
72720;SDS011;60835;50.974;10.322;2023-03-01T11:35:35;20.17;;;12.50;;
72720;SDS011;60835;50.974;10.322;2023-03-01T11:38:15;17.63;;;11.82;;
72720;SDS011;60835;50.974;10.322;2023-03-01T11:40:44;20.88;;;12.63;;
72720;SDS011;60835;50.974;10.322;2023-03-01T11:48:34;21.88;;;13.80;;
72720;SDS011;60835;50.974;10.322;2023-03-01T11:51:20;21.40;;;13.07;;
72720;SDS011;60835;50.974;10.322;2023-03-01T11:57:07;18.50;;;12.45;;
72720;SDS011;60835;50.974;10.322;2023-03-01T11:59:53;20.45;;;13.38;;
72720;SDS011;60835;50.974;10.322;2023-03-01T12:10:55;19.88;;;12.82;;
72720;SDS011;60835;50.974;10.322;2023-03-01T12:19:33;18.70;;;12.50;;
72720;SDS011;60835;50.974;10.322;2023-03-01T12:47:01;20.98;;;11.77;;
72720;SDS011;60835;50.974;10.322;2023-03-01T12:49:44;15.75;;;11.07;;
72720;SDS011;60835;50.974;10.322;2023-03-01T12:52:23;19.00;;;11.60;;
72720;SDS011;60835;50.974;10.322;2023-03-01T12:55:00;21.67;;;12.02;;
72720;SDS011;60835;50.974;10.322;2023-03-01T12:57:34;16.48;;;11.50;;
72720;SDS011;60835;50.974;10.322;2023-03-01T13:03:26;16.27;;;11.55;;
72720;SDS011;60835;50.974;10.322;2023-03-01T13:08:44;17.55;;;11.88;;
72720;SDS011;60835;50.974;10.322;2023-03-01T13:11:20;15.55;;;11.15;;
72720;SDS011;60835;50.974;10.322;2023-03-01T13:13:49;18.38;;;10.98;;
72720;SDS011;60835;50.974;10.322;2023-03-01T13:19:06;15.38;;;10.63;;
72720;SDS011;60835;50.974;10.322;2023-03-01T13:21:36;20.35;;;12.07;;
72720;SDS011;60835;50.974;10.322;2023-03-01T13:24:02;15.43;;;11.52;;
72720;SDS011;60835;50.974;10.322;2023-03-01T13:26:29;18.02;;;11.32;;
72720;SDS011;60835;50.974;10.322;2023-03-01T13:28:56;19.17;;;11.82;;
72720;SDS011;60835;50.974;10.322;2023-03-01T13:33:53;18.30;;;12.10;;
72720;SDS011;60835;50.974;10.322;2023-03-01T13:44:28;17.83;;;11.85;;
72720;SDS011;60835;50.974;10.322;2023-03-01T13:52:30;17.23;;;11.73;;
72720;SDS011;60835;50.974;10.322;2023-03-01T13:54:58;20.02;;;12.77;;
72720;SDS011;60835;50.974;10.322;2023-03-01T13:57:26;20.58;;;12.25;;
72720;SDS011;60835;50.974;10.322;2023-03-01T13:59:58;20.63;;;13.38;;
72720;SDS011;60835;50.974;10.322;2023-03-01T14:02:25;20.60;;;12.43;;
72720;SDS011;60835;50.974;10.322;2023-03-01T14:04:57;18.83;;;12.43;;
72720;SDS011;60835;50.974;10.322;2023-03-01T14:07:25;22.85;;;13.18;;
72720;SDS011;60835;50.974;10.322;2023-03-01T14:10:01;22.92;;;12.45;;
72720;SDS011;60835;50.974;10.322;2023-03-01T14:20:44;22.00;;;11.80;;
72720;SDS011;60835;50.974;10.322;2023-03-01T14:23:18;24.00;;;12.00;;
72720;SDS011;60835;50.974;10.322;2023-03-01T14:25:49;20.00;;;11.23;;
72720;SDS011;60835;50.974;10.322;2023-03-01T14:28:21;22.05;;;11.65;;
72720;SDS011;60835;50.974;10.322;2023-03-01T14:30:49;20.80;;;11.98;;
72720;SDS011;60835;50.974;10.322;2023-03-01T14:35:56;19.35;;;10.80;;
72720;SDS011;60835;50.974;10.322;2023-03-01T14:38:38;22.17;;;11.68;;
72720;SDS011;60835;50.974;10.322;2023-03-01T14:41:13;19.20;;;11.05;;
72720;SDS011;60835;50.974;10.322;2023-03-01T14:43:43;19.23;;;10.82;;
72720;SDS011;60835;50.974;10.322;2023-03-01T14:46:16;20.90;;;11.05;;
72720;SDS011;60835;50.974;10.322;2023-03-01T14:48:52;21.23;;;11.35;;
72720;SDS011;60835;50.974;10.322;2023-03-01T14:51:22;33.30;;;14.27;;
72720;SDS011;60835;50.974;10.322;2023-03-01T14:53:49;21.98;;;10.70;;
72720;SDS011;60835;50.974;10.322;2023-03-01T14:56:17;18.35;;;10.20;;
72720;SDS011;60835;50.974;10.322;2023-03-01T14:58:43;19.77;;;10.95;;
72720;SDS011;60835;50.974;10.322;2023-03-01T15:01:12;20.92;;;12.13;;
72720;SDS011;60835;50.974;10.322;2023-03-01T15:03:42;20.05;;;10.52;;
72720;SDS011;60835;50.974;10.322;2023-03-01T15:06:10;22.17;;;11.23;;
72720;SDS011;60835;50.974;10.322;2023-03-01T15:08:41;19.77;;;10.77;;
72720;SDS011;60835;50.974;10.322;2023-03-01T15:13:40;22.45;;;10.90;;
72720;SDS011;60835;50.974;10.322;2023-03-01T15:16:08;24.15;;;11.15;;
72720;SDS011;60835;50.974;10.322;2023-03-01T15:18:49;19.83;;;10.90;;
72720;SDS011;60835;50.974;10.322;2023-03-01T15:23:50;22.88;;;11.35;;
72720;SDS011;60835;50.974;10.322;2023-03-01T15:26:28;21.30;;;10.40;;
72720;SDS011;60835;50.974;10.322;2023-03-01T15:28:58;18.17;;;9.65;;
72720;SDS011;60835;50.974;10.322;2023-03-01T15:31:36;22.05;;;10.48;;
72720;SDS011;60835;50.974;10.322;2023-03-01T15:34:09;25.30;;;10.77;;
72720;SDS011;60835;50.974;10.322;2023-03-01T15:36:50;20.38;;;9.95;;
72720;SDS011;60835;50.974;10.322;2023-03-01T15:40:01;24.33;;;10.88;;
72720;SDS011;60835;50.974;10.322;2023-03-01T15:47:47;28.00;;;13.30;;
72720;SDS011;60835;50.974;10.322;2023-03-01T15:50:24;23.50;;;11.80;;
72720;SDS011;60835;50.974;10.322;2023-03-01T15:52:53;24.05;;;11.63;;
72720;SDS011;60835;50.974;10.322;2023-03-01T15:55:24;22.52;;;11.07;;
72720;SDS011;60835;50.974;10.322;2023-03-01T15:57:59;21.27;;;10.55;;
72720;SDS011;60835;50.974;10.322;2023-03-01T16:00:28;24.88;;;10.05;;
72720;SDS011;60835;50.974;10.322;2023-03-01T16:02:55;22.10;;;10.55;;
72720;SDS011;60835;50.974;10.322;2023-03-01T16:05:23;20.02;;;10.85;;
72720;SDS011;60835;50.974;10.322;2023-03-01T16:07:53;23.20;;;10.43;;
72720;SDS011;60835;50.974;10.322;2023-03-01T16:10:20;21.55;;;10.98;;
72720;SDS011;60835;50.974;10.322;2023-03-01T16:12:47;20.45;;;11.02;;
72720;SDS011;60835;50.974;10.322;2023-03-01T16:15:18;20.23;;;10.65;;
72720;SDS011;60835;50.974;10.322;2023-03-01T16:17:46;22.30;;;11.50;;
72720;SDS011;60835;50.974;10.322;2023-03-01T16:20:13;24.75;;;11.25;;
72720;SDS011;60835;50.974;10.322;2023-03-01T16:22:53;20.48;;;10.50;;
72720;SDS011;60835;50.974;10.322;2023-03-01T16:25:20;21.90;;;11.07;;
72720;SDS011;60835;50.974;10.322;2023-03-01T16:27:50;26.83;;;11.40;;
72720;SDS011;60835;50.974;10.322;2023-03-01T16:30:20;20.95;;;10.38;;